Ottumwa, IA

1:39 AM CST on February 28, 2015 (GMT -0600)
Pella Municipal | Change Station
CLOSE
Current Station
Airport
Location: Pella,
Elevation: 886 ft
Nearby Weather Stations

Elev 886 ft 41.40 °N, 92.94 °W | Updated 24 minutes ago

Partly Cloudy
Partly Cloudy
-3 °F
Feels Like -13 °F
N
5
Wind Variable Wind from SE

Today
High -- | Low -- °F
--% Chance of Precip.
Yesterday
High -- | Low -- °F
Precip. -- in
6:45 AM 5:59 PM
Waxing Gibbous, 75% visible
Pressure 30.61 in
Visibility 10.0 miles
Clouds Clear
Windchill -13 °F
Dew Point -5 °F
Humidity 90%
Rainfall 0.00 in
Snow Depth Not available.
UV 0 out of 12
Pollen .50 out of 12
Air Quality Not available.
Flu Activity Not available.
METAR KPEA 280715Z AUTO 13004KT 10SM CLR M19/M21 A3061 RMK AO2 T11941207

More Conditions Fewer Conditions

Pressure 30.61 in
Visibility 10.0 miles
Clouds Clear
Windchill -13 °F
Dew Point -5 °F
Humidity 90%
Rainfall 0.00 in
Snow Depth Not available.
UV 0 out of 12
Pollen .50 out of 12
Air Quality Not available.
Flu Activity Not available.
METAR KPEA 280715Z AUTO 13004KT 10SM CLR M19/M21 A3061 RMK AO2 T11941207

More Conditions Fewer Conditions

10-Day Weather Forecast

Almanac

Astronomy

Feb. 28, 2015 Rise Set
Actual Time
Civil Twilight
Nautical Twilight
Astronomical Twilight
Moon
Length of Visible Light
Length of Day
Tomorrow will be .
, % of the Moon is Illuminated

Today's Extremes

State Highs State Lows

Community

WunderPhotos

Upload Photos

1,800,981 photos uploaded!

WunderBlogs® & News

Nearby

Air Quality

  Air Quality AQ Index Pollutant
Not available.

Snow Depth

Station Depth Elevation

Earthquake Activity

City Distance Mag. Time & Date
Minimum magnitude displayed is 2.5.

Coastal Water Temperatures

Place Temperature

Nearby Weather Stations